sensor_id;sensor_type;location;lat;lon;timestamp;P1;durP1;ratioP1;P2;durP2;ratioP2
68082;SDS011;54870;50.336;3.506;2022-10-29T00:00:22;12.73;;;6.65;;
68082;SDS011;54870;50.336;3.506;2022-10-29T00:02:48;13.18;;;7.18;;
68082;SDS011;54870;50.336;3.506;2022-10-29T00:05:14;13.90;;;7.25;;
68082;SDS011;54870;50.336;3.506;2022-10-29T00:07:40;12.48;;;6.90;;
68082;SDS011;54870;50.336;3.506;2022-10-29T00:10:06;14.35;;;6.90;;
68082;SDS011;54870;50.336;3.506;2022-10-29T00:12:32;15.25;;;7.47;;
68082;SDS011;54870;50.336;3.506;2022-10-29T00:14:58;15.80;;;7.07;;
68082;SDS011;54870;50.336;3.506;2022-10-29T00:17:24;13.20;;;6.68;;
68082;SDS011;54870;50.336;3.506;2022-10-29T00:19:50;13.88;;;7.35;;
68082;SDS011;54870;50.336;3.506;2022-10-29T00:22:16;14.05;;;7.07;;
68082;SDS011;54870;50.336;3.506;2022-10-29T00:24:42;14.07;;;6.43;;
68082;SDS011;54870;50.336;3.506;2022-10-29T00:27:08;11.23;;;6.47;;
68082;SDS011;54870;50.336;3.506;2022-10-29T00:29:34;15.25;;;6.20;;
68082;SDS011;54870;50.336;3.506;2022-10-29T00:32:00;11.23;;;6.43;;
68082;SDS011;54870;50.336;3.506;2022-10-29T00:34:27;12.00;;;6.32;;
68082;SDS011;54870;50.336;3.506;2022-10-29T00:36:53;12.63;;;6.47;;
68082;SDS011;54870;50.336;3.506;2022-10-29T00:39:19;14.82;;;6.35;;
68082;SDS011;54870;50.336;3.506;2022-10-29T00:41:45;15.05;;;7.00;;
68082;SDS011;54870;50.336;3.506;2022-10-29T00:46:40;10.02;;;6.10;;
68082;SDS011;54870;50.336;3.506;2022-10-29T00:49:08;12.23;;;6.43;;
68082;SDS011;54870;50.336;3.506;2022-10-29T00:51:34;13.20;;;6.75;;
68082;SDS011;54870;50.336;3.506;2022-10-29T00:54:08;13.98;;;6.72;;
68082;SDS011;54870;50.336;3.506;2022-10-29T00:56:36;12.43;;;6.72;;
68082;SDS011;54870;50.336;3.506;2022-10-29T00:59:02;12.52;;;6.30;;
68082;SDS011;54870;50.336;3.506;2022-10-29T01:01:29;14.18;;;6.30;;
68082;SDS011;54870;50.336;3.506;2022-10-29T01:03:55;14.77;;;6.93;;
68082;SDS011;54870;50.336;3.506;2022-10-29T01:06:24;12.38;;;6.90;;
68082;SDS011;54870;50.336;3.506;2022-10-29T01:08:51;11.10;;;6.10;;
68082;SDS011;54870;50.336;3.506;2022-10-29T01:14:29;9.82;;;5.60;;
68082;SDS011;54870;50.336;3.506;2022-10-29T01:19:21;13.75;;;6.63;;
68082;SDS011;54870;50.336;3.506;2022-10-29T01:22:13;12.07;;;6.40;;
68082;SDS011;54870;50.336;3.506;2022-10-29T01:34:42;12.77;;;6.30;;
68082;SDS011;54870;50.336;3.506;2022-10-29T01:39:55;13.00;;;6.40;;
68082;SDS011;54870;50.336;3.506;2022-10-29T01:42:36;12.23;;;5.70;;
68082;SDS011;54870;50.336;3.506;2022-10-29T01:47:37;10.85;;;5.93;;
68082;SDS011;54870;50.336;3.506;2022-10-29T01:50:06;11.65;;;5.78;;
68082;SDS011;54870;50.336;3.506;2022-10-29T01:52:33;14.02;;;5.90;;
68082;SDS011;54870;50.336;3.506;2022-10-29T01:55:00;13.10;;;5.70;;
68082;SDS011;54870;50.336;3.506;2022-10-29T01:57:31;10.95;;;5.57;;
68082;SDS011;54870;50.336;3.506;2022-10-29T02:00:02;13.10;;;5.65;;
68082;SDS011;54870;50.336;3.506;2022-10-29T02:05:21;12.60;;;5.50;;
68082;SDS011;54870;50.336;3.506;2022-10-29T02:12:52;11.75;;;5.75;;
68082;SDS011;54870;50.336;3.506;2022-10-29T02:18:01;9.75;;;5.22;;
68082;SDS011;54870;50.336;3.506;2022-10-29T02:20:28;11.70;;;5.85;;
68082;SDS011;54870;50.336;3.506;2022-10-29T02:22:54;10.25;;;4.90;;
68082;SDS011;54870;50.336;3.506;2022-10-29T02:25:20;11.50;;;4.82;;
68082;SDS011;54870;50.336;3.506;2022-10-29T02:27:46;12.18;;;5.30;;
68082;SDS011;54870;50.336;3.506;2022-10-29T02:30:13;11.88;;;5.30;;
68082;SDS011;54870;50.336;3.506;2022-10-29T02:32:39;11.48;;;6.05;;
68082;SDS011;54870;50.336;3.506;2022-10-29T02:35:05;9.82;;;4.85;;
68082;SDS011;54870;50.336;3.506;2022-10-29T02:37:31;10.38;;;5.32;;
68082;SDS011;54870;50.336;3.506;2022-10-29T02:39:57;11.02;;;5.18;;
68082;SDS011;54870;50.336;3.506;2022-10-29T02:42:23;10.93;;;5.18;;
68082;SDS011;54870;50.336;3.506;2022-10-29T02:44:49;11.25;;;5.20;;
68082;SDS011;54870;50.336;3.506;2022-10-29T02:47:15;11.25;;;5.38;;
68082;SDS011;54870;50.336;3.506;2022-10-29T02:49:41;12.25;;;5.28;;
68082;SDS011;54870;50.336;3.506;2022-10-29T02:52:07;9.38;;;4.93;;
68082;SDS011;54870;50.336;3.506;2022-10-29T02:54:33;11.25;;;5.43;;
68082;SDS011;54870;50.336;3.506;2022-10-29T02:56:59;12.52;;;5.28;;
68082;SDS011;54870;50.336;3.506;2022-10-29T02:59:25;11.55;;;5.03;;
68082;SDS011;54870;50.336;3.506;2022-10-29T03:01:51;11.27;;;5.40;;
68082;SDS011;54870;50.336;3.506;2022-10-29T03:04:17;9.52;;;5.10;;
68082;SDS011;54870;50.336;3.506;2022-10-29T03:06:43;13.10;;;5.07;;
68082;SDS011;54870;50.336;3.506;2022-10-29T03:09:09;12.90;;;5.25;;
68082;SDS011;54870;50.336;3.506;2022-10-29T03:11:35;9.13;;;5.00;;
68082;SDS011;54870;50.336;3.506;2022-10-29T03:14:01;8.25;;;4.82;;
68082;SDS011;54870;50.336;3.506;2022-10-29T03:16:27;12.38;;;4.78;;
68082;SDS011;54870;50.336;3.506;2022-10-29T03:18:53;10.50;;;5.18;;
68082;SDS011;54870;50.336;3.506;2022-10-29T03:21:19;10.38;;;5.10;;
68082;SDS011;54870;50.336;3.506;2022-10-29T03:23:45;9.82;;;4.43;;
68082;SDS011;54870;50.336;3.506;2022-10-29T03:26:11;9.02;;;4.53;;
68082;SDS011;54870;50.336;3.506;2022-10-29T03:28:37;10.65;;;4.93;;
68082;SDS011;54870;50.336;3.506;2022-10-29T03:31:03;9.77;;;4.80;;
68082;SDS011;54870;50.336;3.506;2022-10-29T03:33:29;10.30;;;4.13;;
68082;SDS011;54870;50.336;3.506;2022-10-29T03:35:56;14.90;;;5.50;;
68082;SDS011;54870;50.336;3.506;2022-10-29T03:38:22;9.45;;;4.65;;
68082;SDS011;54870;50.336;3.506;2022-10-29T03:40:48;9.30;;;4.78;;
68082;SDS011;54870;50.336;3.506;2022-10-29T03:43:14;10.18;;;4.90;;
68082;SDS011;54870;50.336;3.506;2022-10-29T03:45:40;10.80;;;4.55;;
68082;SDS011;54870;50.336;3.506;2022-10-29T03:48:06;10.70;;;4.80;;
68082;SDS011;54870;50.336;3.506;2022-10-29T03:50:32;10.73;;;4.75;;
68082;SDS011;54870;50.336;3.506;2022-10-29T03:52:58;8.85;;;4.70;;
68082;SDS011;54870;50.336;3.506;2022-10-29T03:55:24;11.68;;;4.97;;
68082;SDS011;54870;50.336;3.506;2022-10-29T03:57:53;9.23;;;4.13;;
68082;SDS011;54870;50.336;3.506;2022-10-29T04:00:19;10.65;;;4.97;;
68082;SDS011;54870;50.336;3.506;2022-10-29T04:02:45;8.45;;;4.40;;
68082;SDS011;54870;50.336;3.506;2022-10-29T04:05:11;8.32;;;4.75;;
68082;SDS011;54870;50.336;3.506;2022-10-29T04:07:37;9.30;;;4.85;;
68082;SDS011;54870;50.336;3.506;2022-10-29T04:10:03;13.10;;;4.88;;
68082;SDS011;54870;50.336;3.506;2022-10-29T04:12:29;10.00;;;4.95;;
68082;SDS011;54870;50.336;3.506;2022-10-29T04:14:55;11.98;;;4.88;;
68082;SDS011;54870;50.336;3.506;2022-10-29T04:17:21;9.70;;;4.63;;
68082;SDS011;54870;50.336;3.506;2022-10-29T04:19:47;9.18;;;4.80;;
68082;SDS011;54870;50.336;3.506;2022-10-29T04:22:13;14.30;;;5.65;;
68082;SDS011;54870;50.336;3.506;2022-10-29T04:24:39;13.00;;;4.93;;
68082;SDS011;54870;50.336;3.506;2022-10-29T04:27:05;10.43;;;5.15;;
68082;SDS011;54870;50.336;3.506;2022-10-29T04:29:31;9.70;;;4.38;;
68082;SDS011;54870;50.336;3.506;2022-10-29T04:31:57;15.60;;;5.85;;
68082;SDS011;54870;50.336;3.506;2022-10-29T04:34:23;8.02;;;5.00;;
68082;SDS011;54870;50.336;3.506;2022-10-29T04:36:50;8.05;;;4.95;;
68082;SDS011;54870;50.336;3.506;2022-10-29T04:39:17;10.73;;;4.88;;
68082;SDS011;54870;50.336;3.506;2022-10-29T04:41:45;10.45;;;4.80;;
68082;SDS011;54870;50.336;3.506;2022-10-29T04:44:12;11.13;;;5.07;;
68082;SDS011;54870;50.336;3.506;2022-10-29T04:46:38;11.88;;;4.90;;
68082;SDS011;54870;50.336;3.506;2022-10-29T04:49:04;10.52;;;5.00;;
68082;SDS011;54870;50.336;3.506;2022-10-29T04:51:29;9.10;;;4.72;;
68082;SDS011;54870;50.336;3.506;2022-10-29T04:53:55;10.82;;;5.00;;
68082;SDS011;54870;50.336;3.506;2022-10-29T04:56:22;10.52;;;4.75;;
68082;SDS011;54870;50.336;3.506;2022-10-29T04:58:51;10.07;;;4.72;;
68082;SDS011;54870;50.336;3.506;2022-10-29T05:01:17;11.68;;;5.00;;
68082;SDS011;54870;50.336;3.506;2022-10-29T05:03:43;10.82;;;4.40;;
68082;SDS011;54870;50.336;3.506;2022-10-29T05:06:09;10.05;;;4.32;;
68082;SDS011;54870;50.336;3.506;2022-10-29T05:08:35;9.48;;;4.50;;
68082;SDS011;54870;50.336;3.506;2022-10-29T05:11:01;18.77;;;10.55;;
68082;SDS011;54870;50.336;3.506;2022-10-29T05:13:27;11.38;;;4.97;;
68082;SDS011;54870;50.336;3.506;2022-10-29T05:15:54;9.77;;;5.10;;
68082;SDS011;54870;50.336;3.506;2022-10-29T05:18:20;12.40;;;5.38;;
68082;SDS011;54870;50.336;3.506;2022-10-29T05:20:46;11.25;;;4.65;;
68082;SDS011;54870;50.336;3.506;2022-10-29T05:23:12;10.60;;;5.03;;
68082;SDS011;54870;50.336;3.506;2022-10-29T05:25:40;9.75;;;4.57;;
68082;SDS011;54870;50.336;3.506;2022-10-29T05:28:12;10.27;;;4.53;;
68082;SDS011;54870;50.336;3.506;2022-10-29T05:30:39;10.50;;;4.68;;
68082;SDS011;54870;50.336;3.506;2022-10-29T05:33:08;11.70;;;4.90;;
68082;SDS011;54870;50.336;3.506;2022-10-29T05:35:35;12.05;;;4.68;;
68082;SDS011;54870;50.336;3.506;2022-10-29T05:38:01;10.60;;;4.75;;
68082;SDS011;54870;50.336;3.506;2022-10-29T05:40:27;9.27;;;4.30;;
68082;SDS011;54870;50.336;3.506;2022-10-29T05:42:53;8.90;;;4.28;;
68082;SDS011;54870;50.336;3.506;2022-10-29T05:45:19;9.60;;;4.70;;
68082;SDS011;54870;50.336;3.506;2022-10-29T05:47:45;9.30;;;4.63;;
68082;SDS011;54870;50.336;3.506;2022-10-29T05:50:11;14.95;;;5.53;;
68082;SDS011;54870;50.336;3.506;2022-10-29T05:52:38;10.57;;;5.03;;
68082;SDS011;54870;50.336;3.506;2022-10-29T05:55:04;11.75;;;4.70;;
68082;SDS011;54870;50.336;3.506;2022-10-29T05:57:30;10.23;;;4.80;;
68082;SDS011;54870;50.336;3.506;2022-10-29T05:59:56;9.65;;;4.72;;
68082;SDS011;54870;50.336;3.506;2022-10-29T06:02:22;11.25;;;5.70;;
68082;SDS011;54870;50.336;3.506;2022-10-29T06:04:49;17.95;;;9.85;;
68082;SDS011;54870;50.336;3.506;2022-10-29T06:07:14;10.05;;;4.82;;
68082;SDS011;54870;50.336;3.506;2022-10-29T06:09:40;9.18;;;4.38;;
68082;SDS011;54870;50.336;3.506;2022-10-29T06:12:07;8.50;;;4.18;;
68082;SDS011;54870;50.336;3.506;2022-10-29T06:14:33;11.63;;;4.43;;
68082;SDS011;54870;50.336;3.506;2022-10-29T06:17:00;8.30;;;4.03;;
68082;SDS011;54870;50.336;3.506;2022-10-29T06:19:26;7.53;;;4.38;;
68082;SDS011;54870;50.336;3.506;2022-10-29T06:21:52;8.63;;;4.25;;
68082;SDS011;54870;50.336;3.506;2022-10-29T06:24:18;9.52;;;4.75;;
68082;SDS011;54870;50.336;3.506;2022-10-29T06:26:44;8.82;;;4.72;;
68082;SDS011;54870;50.336;3.506;2022-10-29T06:29:10;8.13;;;4.25;;
68082;SDS011;54870;50.336;3.506;2022-10-29T06:31:36;10.88;;;4.95;;
68082;SDS011;54870;50.336;3.506;2022-10-29T06:34:02;11.73;;;4.32;;
68082;SDS011;54870;50.336;3.506;2022-10-29T06:36:28;8.18;;;4.25;;
68082;SDS011;54870;50.336;3.506;2022-10-29T06:38:54;11.57;;;3.97;;
68082;SDS011;54870;50.336;3.506;2022-10-29T06:41:20;10.00;;;4.20;;
68082;SDS011;54870;50.336;3.506;2022-10-29T06:43:49;10.98;;;4.00;;
68082;SDS011;54870;50.336;3.506;2022-10-29T06:46:15;11.88;;;3.90;;
68082;SDS011;54870;50.336;3.506;2022-10-29T06:48:42;9.45;;;4.13;;
68082;SDS011;54870;50.336;3.506;2022-10-29T06:51:08;7.28;;;3.70;;
68082;SDS011;54870;50.336;3.506;2022-10-29T06:53:34;9.43;;;3.97;;
68082;SDS011;54870;50.336;3.506;2022-10-29T06:56:00;8.73;;;3.95;;
68082;SDS011;54870;50.336;3.506;2022-10-29T06:58:26;10.45;;;4.63;;
68082;SDS011;54870;50.336;3.506;2022-10-29T07:00:52;8.88;;;4.10;;
68082;SDS011;54870;50.336;3.506;2022-10-29T07:03:19;8.45;;;3.95;;
68082;SDS011;54870;50.336;3.506;2022-10-29T07:05:46;8.15;;;3.92;;
68082;SDS011;54870;50.336;3.506;2022-10-29T07:08:12;10.77;;;4.38;;
68082;SDS011;54870;50.336;3.506;2022-10-29T07:10:39;10.18;;;4.60;;
68082;SDS011;54870;50.336;3.506;2022-10-29T07:13:05;10.52;;;3.60;;
68082;SDS011;54870;50.336;3.506;2022-10-29T07:15:31;8.18;;;3.88;;
68082;SDS011;54870;50.336;3.506;2022-10-29T07:18:02;8.60;;;3.97;;
68082;SDS011;54870;50.336;3.506;2022-10-29T07:20:30;9.40;;;4.38;;
68082;SDS011;54870;50.336;3.506;2022-10-29T07:22:57;9.65;;;5.15;;
68082;SDS011;54870;50.336;3.506;2022-10-29T07:25:25;8.48;;;3.85;;
68082;SDS011;54870;50.336;3.506;2022-10-29T07:27:52;12.45;;;4.38;;
68082;SDS011;54870;50.336;3.506;2022-10-29T07:30:18;9.80;;;4.55;;
68082;SDS011;54870;50.336;3.506;2022-10-29T07:32:45;9.52;;;4.20;;
68082;SDS011;54870;50.336;3.506;2022-10-29T07:35:11;10.45;;;4.00;;
68082;SDS011;54870;50.336;3.506;2022-10-29T07:37:37;13.00;;;4.45;;
68082;SDS011;54870;50.336;3.506;2022-10-29T07:40:04;9.55;;;3.80;;
68082;SDS011;54870;50.336;3.506;2022-10-29T07:42:30;10.60;;;4.00;;
68082;SDS011;54870;50.336;3.506;2022-10-29T07:44:56;8.52;;;3.67;;
68082;SDS011;54870;50.336;3.506;2022-10-29T07:47:23;8.57;;;3.53;;
68082;SDS011;54870;50.336;3.506;2022-10-29T07:49:49;8.77;;;3.67;;
68082;SDS011;54870;50.336;3.506;2022-10-29T07:52:15;11.05;;;3.58;;
68082;SDS011;54870;50.336;3.506;2022-10-29T07:54:41;8.20;;;3.55;;
68082;SDS011;54870;50.336;3.506;2022-10-29T07:57:08;9.63;;;3.90;;
68082;SDS011;54870;50.336;3.506;2022-10-29T07:59:34;9.85;;;3.55;;
68082;SDS011;54870;50.336;3.506;2022-10-29T08:02:01;9.95;;;3.90;;
68082;SDS011;54870;50.336;3.506;2022-10-29T08:04:27;8.88;;;3.83;;
68082;SDS011;54870;50.336;3.506;2022-10-29T08:06:53;8.80;;;4.00;;
68082;SDS011;54870;50.336;3.506;2022-10-29T08:09:19;9.13;;;3.63;;
68082;SDS011;54870;50.336;3.506;2022-10-29T08:11:46;8.80;;;3.97;;
68082;SDS011;54870;50.336;3.506;2022-10-29T08:14:11;9.20;;;4.32;;
68082;SDS011;54870;50.336;3.506;2022-10-29T08:16:37;7.65;;;3.58;;
68082;SDS011;54870;50.336;3.506;2022-10-29T08:19:03;11.95;;;3.95;;
68082;SDS011;54870;50.336;3.506;2022-10-29T08:21:29;9.38;;;3.83;;
68082;SDS011;54870;50.336;3.506;2022-10-29T08:23:55;8.18;;;3.55;;
68082;SDS011;54870;50.336;3.506;2022-10-29T08:26:21;11.30;;;3.55;;
68082;SDS011;54870;50.336;3.506;2022-10-29T08:28:47;7.47;;;3.45;;
68082;SDS011;54870;50.336;3.506;2022-10-29T08:31:13;10.38;;;3.30;;
68082;SDS011;54870;50.336;3.506;2022-10-29T08:33:40;10.10;;;3.50;;
68082;SDS011;54870;50.336;3.506;2022-10-29T08:36:06;7.18;;;3.60;;
68082;SDS011;54870;50.336;3.506;2022-10-29T08:38:32;7.60;;;3.38;;
68082;SDS011;54870;50.336;3.506;2022-10-29T08:45:59;10.40;;;3.45;;
68082;SDS011;54870;50.336;3.506;2022-10-29T08:48:35;6.72;;;3.28;;
68082;SDS011;54870;50.336;3.506;2022-10-29T08:53:51;10.07;;;4.15;;
68082;SDS011;54870;50.336;3.506;2022-10-29T08:56:18;9.00;;;3.70;;
68082;SDS011;54870;50.336;3.506;2022-10-29T08:58:49;8.80;;;4.03;;
68082;SDS011;54870;50.336;3.506;2022-10-29T09:01:19;10.50;;;4.20;;
68082;SDS011;54870;50.336;3.506;2022-10-29T09:03:46;9.38;;;3.75;;
68082;SDS011;54870;50.336;3.506;2022-10-29T09:06:13;6.95;;;3.45;;
68082;SDS011;54870;50.336;3.506;2022-10-29T09:11:40;9.73;;;3.63;;
68082;SDS011;54870;50.336;3.506;2022-10-29T09:16:54;8.27;;;4.45;;
68082;SDS011;54870;50.336;3.506;2022-10-29T09:19:40;6.70;;;3.22;;
68082;SDS011;54870;50.336;3.506;2022-10-29T09:24:48;8.13;;;3.10;;
68082;SDS011;54870;50.336;3.506;2022-10-29T09:29:50;8.20;;;3.10;;
68082;SDS011;54870;50.336;3.506;2022-10-29T09:34:48;9.95;;;3.17;;
68082;SDS011;54870;50.336;3.506;2022-10-29T09:39:41;8.13;;;3.45;;
68082;SDS011;54870;50.336;3.506;2022-10-29T09:42:09;9.27;;;3.50;;
68082;SDS011;54870;50.336;3.506;2022-10-29T09:44:38;8.23;;;3.55;;
68082;SDS011;54870;50.336;3.506;2022-10-29T09:52:13;7.65;;;2.80;;
68082;SDS011;54870;50.336;3.506;2022-10-29T09:54:39;8.93;;;3.00;;
68082;SDS011;54870;50.336;3.506;2022-10-29T09:57:05;10.85;;;2.70;;
68082;SDS011;54870;50.336;3.506;2022-10-29T09:59:33;5.57;;;2.72;;
68082;SDS011;54870;50.336;3.506;2022-10-29T10:02:00;6.03;;;3.00;;
68082;SDS011;54870;50.336;3.506;2022-10-29T10:04:27;9.45;;;3.70;;
68082;SDS011;54870;50.336;3.506;2022-10-29T10:07:10;9.25;;;2.70;;
68082;SDS011;54870;50.336;3.506;2022-10-29T10:09:57;6.43;;;2.70;;
68082;SDS011;54870;50.336;3.506;2022-10-29T10:15:00;8.50;;;3.10;;
68082;SDS011;54870;50.336;3.506;2022-10-29T10:17:26;6.75;;;2.88;;
68082;SDS011;54870;50.336;3.506;2022-10-29T10:19:52;8.30;;;3.60;;
68082;SDS011;54870;50.336;3.506;2022-10-29T10:22:19;7.70;;;2.83;;
68082;SDS011;54870;50.336;3.506;2022-10-29T10:24:46;7.80;;;3.05;;
68082;SDS011;54870;50.336;3.506;2022-10-29T10:32:28;9.20;;;3.17;;
68082;SDS011;54870;50.336;3.506;2022-10-29T10:34:54;7.35;;;2.78;;
68082;SDS011;54870;50.336;3.506;2022-10-29T10:37:21;7.32;;;3.10;;
68082;SDS011;54870;50.336;3.506;2022-10-29T10:42:15;7.55;;;2.80;;
68082;SDS011;54870;50.336;3.506;2022-10-29T10:44:46;6.25;;;2.45;;
68082;SDS011;54870;50.336;3.506;2022-10-29T10:47:12;5.90;;;2.42;;
68082;SDS011;54870;50.336;3.506;2022-10-29T10:49:39;6.25;;;2.55;;
68082;SDS011;54870;50.336;3.506;2022-10-29T10:52:10;7.38;;;2.42;;
68082;SDS011;54870;50.336;3.506;2022-10-29T10:54:38;7.22;;;2.47;;
68082;SDS011;54870;50.336;3.506;2022-10-29T10:59:53;6.63;;;2.90;;
68082;SDS011;54870;50.336;3.506;2022-10-29T11:02:28;8.88;;;2.28;;
68082;SDS011;54870;50.336;3.506;2022-10-29T11:07:34;6.25;;;3.20;;
68082;SDS011;54870;50.336;3.506;2022-10-29T11:10:02;6.10;;;2.45;;
68082;SDS011;54870;50.336;3.506;2022-10-29T11:12:31;8.82;;;2.78;;
68082;SDS011;54870;50.336;3.506;2022-10-29T11:17:54;7.70;;;2.83;;
68082;SDS011;54870;50.336;3.506;2022-10-29T11:20:31;5.72;;;2.55;;
68082;SDS011;54870;50.336;3.506;2022-10-29T11:25:46;4.53;;;2.05;;
68082;SDS011;54870;50.336;3.506;2022-10-29T11:28:25;7.35;;;2.47;;
68082;SDS011;54870;50.336;3.506;2022-10-29T11:30:55;6.90;;;2.78;;
68082;SDS011;54870;50.336;3.506;2022-10-29T11:33:44;5.30;;;2.80;;
68082;SDS011;54870;50.336;3.506;2022-10-29T11:36:18;6.90;;;2.47;;
68082;SDS011;54870;50.336;3.506;2022-10-29T11:38:48;5.30;;;2.38;;
68082;SDS011;54870;50.336;3.506;2022-10-29T11:43:47;5.78;;;2.30;;
68082;SDS011;54870;50.336;3.506;2022-10-29T11:54:17;5.80;;;2.28;;
68082;SDS011;54870;50.336;3.506;2022-10-29T12:12:24;5.33;;;2.40;;
68082;SDS011;54870;50.336;3.506;2022-10-29T12:17:41;6.32;;;2.45;;
68082;SDS011;54870;50.336;3.506;2022-10-29T12:20:15;5.45;;;2.38;;
68082;SDS011;54870;50.336;3.506;2022-10-29T12:22:43;6.72;;;2.53;;
68082;SDS011;54870;50.336;3.506;2022-10-29T12:28:03;5.10;;;2.33;;
68082;SDS011;54870;50.336;3.506;2022-10-29T12:30:33;8.35;;;2.58;;
68082;SDS011;54870;50.336;3.506;2022-10-29T12:35:39;6.13;;;2.67;;
68082;SDS011;54870;50.336;3.506;2022-10-29T12:40:54;8.73;;;2.70;;
68082;SDS011;54870;50.336;3.506;2022-10-29T12:43:33;6.63;;;2.25;;
68082;SDS011;54870;50.336;3.506;2022-10-29T12:46:10;6.55;;;2.70;;
68082;SDS011;54870;50.336;3.506;2022-10-29T12:48:48;9.05;;;3.38;;
68082;SDS011;54870;50.336;3.506;2022-10-29T12:53:54;8.65;;;3.67;;
68082;SDS011;54870;50.336;3.506;2022-10-29T12:56:22;7.32;;;2.70;;
68082;SDS011;54870;50.336;3.506;2022-10-29T12:58:49;12.93;;;3.90;;
68082;SDS011;54870;50.336;3.506;2022-10-29T13:11:42;9.43;;;3.00;;
68082;SDS011;54870;50.336;3.506;2022-10-29T13:14:10;7.85;;;2.75;;
68082;SDS011;54870;50.336;3.506;2022-10-29T13:16:38;9.30;;;3.75;;
68082;SDS011;54870;50.336;3.506;2022-10-29T13:19:07;9.25;;;3.05;;
68082;SDS011;54870;50.336;3.506;2022-10-29T13:24:22;6.22;;;2.50;;
68082;SDS011;54870;50.336;3.506;2022-10-29T13:27:30;6.65;;;2.58;;
68082;SDS011;54870;50.336;3.506;2022-10-29T13:29:41;6.20;;;2.63;;
68082;SDS011;54870;50.336;3.506;2022-10-29T13:32:07;7.32;;;2.65;;
68082;SDS011;54870;50.336;3.506;2022-10-29T13:34:53;7.53;;;2.70;;
68082;SDS011;54870;50.336;3.506;2022-10-29T13:42:45;6.70;;;2.80;;
68082;SDS011;54870;50.336;3.506;2022-10-29T13:45:17;6.65;;;3.08;;
68082;SDS011;54870;50.336;3.506;2022-10-29T13:47:44;8.13;;;3.10;;
68082;SDS011;54870;50.336;3.506;2022-10-29T13:50:10;8.13;;;3.92;;
68082;SDS011;54870;50.336;3.506;2022-10-29T13:52:39;5.50;;;2.97;;
68082;SDS011;54870;50.336;3.506;2022-10-29T13:55:06;6.20;;;2.70;;
68082;SDS011;54870;50.336;3.506;2022-10-29T14:07:52;6.60;;;2.70;;
68082;SDS011;54870;50.336;3.506;2022-10-29T14:10:23;7.90;;;3.57;;
68082;SDS011;54870;50.336;3.506;2022-10-29T14:12:50;6.22;;;2.80;;
68082;SDS011;54870;50.336;3.506;2022-10-29T14:15:18;6.63;;;2.50;;
68082;SDS011;54870;50.336;3.506;2022-10-29T14:17:44;6.53;;;2.90;;
68082;SDS011;54870;50.336;3.506;2022-10-29T14:20:21;8.38;;;3.40;;
68082;SDS011;54870;50.336;3.506;2022-10-29T14:22:47;7.55;;;3.33;;
68082;SDS011;54870;50.336;3.506;2022-10-29T14:30:34;9.15;;;3.13;;
68082;SDS011;54870;50.336;3.506;2022-10-29T14:33:00;10.55;;;3.40;;
68082;SDS011;54870;50.336;3.506;2022-10-29T14:35:26;9.02;;;3.40;;
68082;SDS011;54870;50.336;3.506;2022-10-29T14:37:52;7.50;;;3.05;;
68082;SDS011;54870;50.336;3.506;2022-10-29T14:40:21;8.95;;;2.95;;
68082;SDS011;54870;50.336;3.506;2022-10-29T14:42:49;8.15;;;3.60;;
68082;SDS011;54870;50.336;3.506;2022-10-29T14:45:24;8.15;;;3.45;;
68082;SDS011;54870;50.336;3.506;2022-10-29T14:47:53;11.50;;;3.42;;
68082;SDS011;54870;50.336;3.506;2022-10-29T14:50:20;7.53;;;2.97;;
68082;SDS011;54870;50.336;3.506;2022-10-29T14:52:48;7.85;;;3.83;;
68082;SDS011;54870;50.336;3.506;2022-10-29T14:55:50;8.15;;;3.10;;
68082;SDS011;54870;50.336;3.506;2022-10-29T14:58:19;8.80;;;3.50;;
68082;SDS011;54870;50.336;3.506;2022-10-29T15:00:57;10.10;;;4.05;;
68082;SDS011;54870;50.336;3.506;2022-10-29T15:03:24;10.90;;;4.28;;
68082;SDS011;54870;50.336;3.506;2022-10-29T15:05:51;9.65;;;3.95;;
68082;SDS011;54870;50.336;3.506;2022-10-29T15:08:37;8.57;;;3.88;;
68082;SDS011;54870;50.336;3.506;2022-10-29T15:11:03;9.55;;;3.80;;
68082;SDS011;54870;50.336;3.506;2022-10-29T15:13:30;11.35;;;4.22;;
68082;SDS011;54870;50.336;3.506;2022-10-29T15:18:22;9.13;;;3.97;;
68082;SDS011;54870;50.336;3.506;2022-10-29T15:20:49;8.68;;;3.72;;
68082;SDS011;54870;50.336;3.506;2022-10-29T15:25:45;8.73;;;3.80;;
68082;SDS011;54870;50.336;3.506;2022-10-29T15:28:28;10.18;;;4.32;;
68082;SDS011;54870;50.336;3.506;2022-10-29T15:30:55;9.63;;;4.28;;
68082;SDS011;54870;50.336;3.506;2022-10-29T15:33:25;9.38;;;4.03;;
68082;SDS011;54870;50.336;3.506;2022-10-29T15:35:53;10.18;;;3.97;;
68082;SDS011;54870;50.336;3.506;2022-10-29T15:43:31;12.80;;;4.22;;
68082;SDS011;54870;50.336;3.506;2022-10-29T15:45:57;7.68;;;3.83;;
68082;SDS011;54870;50.336;3.506;2022-10-29T15:48:42;6.60;;;3.40;;
68082;SDS011;54870;50.336;3.506;2022-10-29T15:51:08;9.48;;;4.10;;
68082;SDS011;54870;50.336;3.506;2022-10-29T15:53:34;7.60;;;3.60;;
68082;SDS011;54870;50.336;3.506;2022-10-29T15:56:00;9.63;;;3.85;;
68082;SDS011;54870;50.336;3.506;2022-10-29T15:58:27;8.45;;;4.07;;
68082;SDS011;54870;50.336;3.506;2022-10-29T16:00:54;7.32;;;3.50;;
68082;SDS011;54870;50.336;3.506;2022-10-29T16:03:22;7.00;;;3.25;;
68082;SDS011;54870;50.336;3.506;2022-10-29T16:05:50;12.48;;;3.70;;
68082;SDS011;54870;50.336;3.506;2022-10-29T16:08:22;5.95;;;3.58;;
68082;SDS011;54870;50.336;3.506;2022-10-29T16:10:48;8.73;;;3.75;;
68082;SDS011;54870;50.336;3.506;2022-10-29T16:13:15;9.27;;;3.38;;
68082;SDS011;54870;50.336;3.506;2022-10-29T16:15:41;10.15;;;3.72;;
68082;SDS011;54870;50.336;3.506;2022-10-29T16:18:07;8.45;;;3.67;;
68082;SDS011;54870;50.336;3.506;2022-10-29T16:20:33;8.63;;;3.72;;
68082;SDS011;54870;50.336;3.506;2022-10-29T16:22:59;8.65;;;3.42;;
68082;SDS011;54870;50.336;3.506;2022-10-29T16:25:26;10.95;;;4.18;;
68082;SDS011;54870;50.336;3.506;2022-10-29T16:27:52;11.20;;;3.88;;
68082;SDS011;54870;50.336;3.506;2022-10-29T16:30:19;9.43;;;4.10;;
68082;SDS011;54870;50.336;3.506;2022-10-29T16:32:46;8.00;;;3.58;;
68082;SDS011;54870;50.336;3.506;2022-10-29T16:35:23;8.13;;;3.85;;
68082;SDS011;54870;50.336;3.506;2022-10-29T16:37:50;8.68;;;4.10;;
68082;SDS011;54870;50.336;3.506;2022-10-29T16:40:17;8.88;;;4.18;;
68082;SDS011;54870;50.336;3.506;2022-10-29T16:42:43;7.50;;;3.50;;
68082;SDS011;54870;50.336;3.506;2022-10-29T16:45:14;11.45;;;4.25;;
68082;SDS011;54870;50.336;3.506;2022-10-29T16:47:40;6.63;;;3.78;;
68082;SDS011;54870;50.336;3.506;2022-10-29T16:50:07;8.32;;;3.78;;
68082;SDS011;54870;50.336;3.506;2022-10-29T16:52:34;7.40;;;3.60;;
68082;SDS011;54870;50.336;3.506;2022-10-29T16:55:00;8.85;;;3.60;;
68082;SDS011;54870;50.336;3.506;2022-10-29T16:57:26;9.80;;;3.97;;
68082;SDS011;54870;50.336;3.506;2022-10-29T16:59:53;8.98;;;3.85;;
68082;SDS011;54870;50.336;3.506;2022-10-29T17:02:19;9.68;;;4.35;;
68082;SDS011;54870;50.336;3.506;2022-10-29T17:04:45;7.90;;;3.55;;
68082;SDS011;54870;50.336;3.506;2022-10-29T17:07:11;10.57;;;3.92;;
68082;SDS011;54870;50.336;3.506;2022-10-29T17:09:37;9.20;;;3.85;;
68082;SDS011;54870;50.336;3.506;2022-10-29T17:12:04;7.20;;;3.78;;
68082;SDS011;54870;50.336;3.506;2022-10-29T17:14:30;10.23;;;4.22;;
68082;SDS011;54870;50.336;3.506;2022-10-29T17:16:56;6.82;;;3.95;;
68082;SDS011;54870;50.336;3.506;2022-10-29T17:19:22;10.00;;;4.18;;
68082;SDS011;54870;50.336;3.506;2022-10-29T17:21:48;6.78;;;3.30;;
68082;SDS011;54870;50.336;3.506;2022-10-29T17:24:14;11.77;;;4.00;;
68082;SDS011;54870;50.336;3.506;2022-10-29T17:26:40;7.07;;;3.95;;
68082;SDS011;54870;50.336;3.506;2022-10-29T17:29:06;7.45;;;3.58;;
68082;SDS011;54870;50.336;3.506;2022-10-29T17:31:32;7.97;;;3.50;;
68082;SDS011;54870;50.336;3.506;2022-10-29T17:33:58;9.25;;;4.30;;